sensor_id;sensor_type;location;lat;lon;timestamp;P1;durP1;ratioP1;P2;durP2;ratioP2
43226;SDS011;28839;52.404;9.808;2022-11-22T00:06:04;41.22;;;18.87;;
43226;SDS011;28839;52.404;9.808;2022-11-22T00:12:58;66.57;;;25.53;;
43226;SDS011;28839;52.404;9.808;2022-11-22T00:19:54;69.03;;;26.07;;
43226;SDS011;28839;52.404;9.808;2022-11-22T00:26:48;79.25;;;26.83;;
43226;SDS011;28839;52.404;9.808;2022-11-22T00:33:41;69.62;;;24.00;;
43226;SDS011;28839;52.404;9.808;2022-11-22T00:40:37;79.22;;;26.35;;
43226;SDS011;28839;52.404;9.808;2022-11-22T00:47:30;78.50;;;27.05;;
43226;SDS011;28839;52.404;9.808;2022-11-22T00:54:24;56.60;;;20.05;;
43226;SDS011;28839;52.404;9.808;2022-11-22T01:01:20;94.82;;;30.92;;
43226;SDS011;28839;52.404;9.808;2022-11-22T01:08:13;91.80;;;30.40;;
43226;SDS011;28839;52.404;9.808;2022-11-22T01:15:08;84.40;;;30.15;;
43226;SDS011;28839;52.404;9.808;2022-11-22T01:22:03;88.12;;;33.15;;
43226;SDS011;28839;52.404;9.808;2022-11-22T01:28:57;93.93;;;31.80;;
43226;SDS011;28839;52.404;9.808;2022-11-22T01:35:51;88.80;;;31.98;;
43226;SDS011;28839;52.404;9.808;2022-11-22T01:42:47;97.73;;;34.57;;
43226;SDS011;28839;52.404;9.808;2022-11-22T01:49:43;85.38;;;32.53;;
43226;SDS011;28839;52.404;9.808;2022-11-22T01:56:40;77.82;;;21.60;;
43226;SDS011;28839;52.404;9.808;2022-11-22T02:03:38;70.78;;;29.67;;
43226;SDS011;28839;52.404;9.808;2022-11-22T02:10:36;70.07;;;25.27;;
43226;SDS011;28839;52.404;9.808;2022-11-22T02:17:35;75.60;;;29.15;;
43226;SDS011;28839;52.404;9.808;2022-11-22T02:24:34;53.08;;;20.37;;
43226;SDS011;28839;52.404;9.808;2022-11-22T02:31:38;77.82;;;28.62;;
43226;SDS011;28839;52.404;9.808;2022-11-22T02:38:34;79.18;;;31.23;;
43226;SDS011;28839;52.404;9.808;2022-11-22T02:45:28;71.37;;;28.70;;
43226;SDS011;28839;52.404;9.808;2022-11-22T02:52:23;74.18;;;29.25;;
43226;SDS011;28839;52.404;9.808;2022-11-22T02:59:17;82.80;;;32.80;;
43226;SDS011;28839;52.404;9.808;2022-11-22T03:06:11;81.57;;;34.33;;
43226;SDS011;28839;52.404;9.808;2022-11-22T03:13:06;85.57;;;33.15;;
43226;SDS011;28839;52.404;9.808;2022-11-22T03:20:00;77.57;;;29.12;;
43226;SDS011;28839;52.404;9.808;2022-11-22T03:26:54;79.82;;;32.25;;
43226;SDS011;28839;52.404;9.808;2022-11-22T03:33:49;78.45;;;31.00;;
43226;SDS011;28839;52.404;9.808;2022-11-22T03:40:44;58.28;;;27.08;;
43226;SDS011;28839;52.404;9.808;2022-11-22T03:47:38;72.97;;;29.25;;
43226;SDS011;28839;52.404;9.808;2022-11-22T03:54:34;71.10;;;27.95;;
43226;SDS011;28839;52.404;9.808;2022-11-22T04:01:27;81.68;;;21.48;;
43226;SDS011;28839;52.404;9.808;2022-11-22T04:08:21;68.70;;;27.23;;
43226;SDS011;28839;52.404;9.808;2022-11-22T04:15:17;65.80;;;24.80;;
43226;SDS011;28839;52.404;9.808;2022-11-22T04:22:11;77.72;;;29.37;;
43226;SDS011;28839;52.404;9.808;2022-11-22T04:29:05;82.37;;;32.35;;
43226;SDS011;28839;52.404;9.808;2022-11-22T04:36:00;91.57;;;31.93;;
43226;SDS011;28839;52.404;9.808;2022-11-22T04:42:54;64.65;;;27.30;;
43226;SDS011;28839;52.404;9.808;2022-11-22T04:50:06;76.22;;;33.65;;
43226;SDS011;28839;52.404;9.808;2022-11-22T04:57:16;84.25;;;32.63;;
43226;SDS011;28839;52.404;9.808;2022-11-22T05:04:10;76.15;;;31.73;;
43226;SDS011;28839;52.404;9.808;2022-11-22T05:11:03;70.85;;;29.77;;
43226;SDS011;28839;52.404;9.808;2022-11-22T05:17:59;76.35;;;30.67;;
43226;SDS011;28839;52.404;9.808;2022-11-22T05:24:53;79.97;;;33.55;;
43226;SDS011;28839;52.404;9.808;2022-11-22T05:31:46;69.82;;;27.15;;
43226;SDS011;28839;52.404;9.808;2022-11-22T05:38:41;76.28;;;31.65;;
43226;SDS011;28839;52.404;9.808;2022-11-22T05:45:35;62.10;;;27.00;;
43226;SDS011;28839;52.404;9.808;2022-11-22T05:52:29;61.92;;;26.87;;
43226;SDS011;28839;52.404;9.808;2022-11-22T05:59:25;70.35;;;29.65;;
43226;SDS011;28839;52.404;9.808;2022-11-22T06:06:18;62.33;;;28.42;;
43226;SDS011;28839;52.404;9.808;2022-11-22T06:13:12;62.13;;;27.85;;
43226;SDS011;28839;52.404;9.808;2022-11-22T06:20:08;59.40;;;26.80;;
43226;SDS011;28839;52.404;9.808;2022-11-22T06:27:02;64.15;;;27.80;;
43226;SDS011;28839;52.404;9.808;2022-11-22T06:33:57;65.60;;;28.42;;
43226;SDS011;28839;52.404;9.808;2022-11-22T06:40:53;60.40;;;26.90;;
43226;SDS011;28839;52.404;9.808;2022-11-22T06:47:51;59.28;;;25.75;;
43226;SDS011;28839;52.404;9.808;2022-11-22T06:54:45;61.65;;;26.05;;
43226;SDS011;28839;52.404;9.808;2022-11-22T07:01:40;55.70;;;26.20;;
43226;SDS011;28839;52.404;9.808;2022-11-22T07:08:34;60.90;;;27.02;;
43226;SDS011;28839;52.404;9.808;2022-11-22T07:15:29;62.50;;;27.60;;
43226;SDS011;28839;52.404;9.808;2022-11-22T07:22:24;58.87;;;26.00;;
43226;SDS011;28839;52.404;9.808;2022-11-22T07:29:18;56.53;;;26.23;;
43226;SDS011;28839;52.404;9.808;2022-11-22T07:36:12;52.10;;;25.35;;
43226;SDS011;28839;52.404;9.808;2022-11-22T07:43:08;50.88;;;25.30;;
43226;SDS011;28839;52.404;9.808;2022-11-22T07:50:02;58.80;;;25.88;;
43226;SDS011;28839;52.404;9.808;2022-11-22T07:56:57;57.00;;;27.15;;
43226;SDS011;28839;52.404;9.808;2022-11-22T08:03:52;49.28;;;26.10;;
43226;SDS011;28839;52.404;9.808;2022-11-22T08:10:46;44.28;;;23.35;;
43226;SDS011;28839;52.404;9.808;2022-11-22T08:17:39;47.83;;;24.35;;
43226;SDS011;28839;52.404;9.808;2022-11-22T08:24:35;50.15;;;26.08;;
43226;SDS011;28839;52.404;9.808;2022-11-22T08:31:29;41.40;;;22.27;;
43226;SDS011;28839;52.404;9.808;2022-11-22T08:38:22;43.80;;;22.15;;
43226;SDS011;28839;52.404;9.808;2022-11-22T08:45:18;42.13;;;22.15;;
43226;SDS011;28839;52.404;9.808;2022-11-22T08:52:11;39.10;;;21.52;;
43226;SDS011;28839;52.404;9.808;2022-11-22T08:59:05;42.83;;;20.98;;
43226;SDS011;28839;52.404;9.808;2022-11-22T09:06:01;42.60;;;23.00;;
43226;SDS011;28839;52.404;9.808;2022-11-22T09:12:56;43.83;;;21.98;;
43226;SDS011;28839;52.404;9.808;2022-11-22T09:19:50;39.17;;;20.88;;
43226;SDS011;28839;52.404;9.808;2022-11-22T09:26:45;37.88;;;21.77;;
43226;SDS011;28839;52.404;9.808;2022-11-22T09:33:39;40.60;;;21.37;;
43226;SDS011;28839;52.404;9.808;2022-11-22T09:40:36;38.92;;;20.48;;
43226;SDS011;28839;52.404;9.808;2022-11-22T09:47:33;32.03;;;17.92;;
43226;SDS011;28839;52.404;9.808;2022-11-22T09:54:33;31.00;;;17.42;;
43226;SDS011;28839;52.404;9.808;2022-11-22T10:01:33;29.90;;;16.98;;
43226;SDS011;28839;52.404;9.808;2022-11-22T10:08:35;31.77;;;16.52;;
43226;SDS011;28839;52.404;9.808;2022-11-22T10:15:34;27.55;;;16.48;;
43226;SDS011;28839;52.404;9.808;2022-11-22T10:22:36;22.50;;;14.15;;
43226;SDS011;28839;52.404;9.808;2022-11-22T10:29:33;24.98;;;14.52;;
43226;SDS011;28839;52.404;9.808;2022-11-22T10:36:36;22.95;;;13.52;;
43226;SDS011;28839;52.404;9.808;2022-11-22T10:43:36;22.40;;;14.18;;
43226;SDS011;28839;52.404;9.808;2022-11-22T10:50:41;27.85;;;14.38;;
43226;SDS011;28839;52.404;9.808;2022-11-22T10:57:45;32.33;;;15.13;;
43226;SDS011;28839;52.404;9.808;2022-11-22T11:04:46;24.17;;;14.23;;
43226;SDS011;28839;52.404;9.808;2022-11-22T11:11:44;23.92;;;14.82;;
43226;SDS011;28839;52.404;9.808;2022-11-22T11:18:40;19.00;;;12.77;;
43226;SDS011;28839;52.404;9.808;2022-11-22T11:25:39;15.00;;;11.32;;
43226;SDS011;28839;52.404;9.808;2022-11-22T11:32:49;17.02;;;9.75;;
43226;SDS011;28839;52.404;9.808;2022-11-22T11:39:44;23.52;;;12.63;;
43226;SDS011;28839;52.404;9.808;2022-11-22T11:53:38;19.35;;;10.38;;
43226;SDS011;28839;52.404;9.808;2022-11-22T12:00:34;24.90;;;12.85;;
43226;SDS011;28839;52.404;9.808;2022-11-22T12:07:37;27.62;;;15.05;;
43226;SDS011;28839;52.404;9.808;2022-11-22T12:14:34;30.62;;;15.95;;
43226;SDS011;28839;52.404;9.808;2022-11-22T12:21:32;15.50;;;9.82;;
43226;SDS011;28839;52.404;9.808;2022-11-22T12:28:31;15.43;;;9.88;;
43226;SDS011;28839;52.404;9.808;2022-11-22T12:35:27;13.47;;;7.77;;
43226;SDS011;28839;52.404;9.808;2022-11-22T12:42:27;12.77;;;7.18;;
43226;SDS011;28839;52.404;9.808;2022-11-22T12:49:27;13.95;;;7.80;;
43226;SDS011;28839;52.404;9.808;2022-11-22T12:56:26;13.90;;;7.37;;
43226;SDS011;28839;52.404;9.808;2022-11-22T13:03:25;13.20;;;8.38;;
43226;SDS011;28839;52.404;9.808;2022-11-22T13:10:29;20.58;;;10.20;;
43226;SDS011;28839;52.404;9.808;2022-11-22T13:17:31;24.00;;;11.35;;
43226;SDS011;28839;52.404;9.808;2022-11-22T13:24:29;20.62;;;10.18;;
43226;SDS011;28839;52.404;9.808;2022-11-22T13:31:31;24.27;;;14.07;;
43226;SDS011;28839;52.404;9.808;2022-11-22T13:45:22;22.10;;;13.93;;
43226;SDS011;28839;52.404;9.808;2022-11-22T13:52:26;24.35;;;13.18;;
43226;SDS011;28839;52.404;9.808;2022-11-22T13:59:27;22.23;;;13.65;;
43226;SDS011;28839;52.404;9.808;2022-11-22T14:06:22;19.80;;;12.27;;
43226;SDS011;28839;52.404;9.808;2022-11-22T14:13:23;22.37;;;10.90;;
43226;SDS011;28839;52.404;9.808;2022-11-22T14:20:30;15.68;;;10.73;;
43226;SDS011;28839;52.404;9.808;2022-11-22T14:27:33;19.05;;;10.60;;
43226;SDS011;28839;52.404;9.808;2022-11-22T14:34:34;26.60;;;12.23;;
43226;SDS011;28839;52.404;9.808;2022-11-22T14:49:41;19.83;;;12.23;;
43226;SDS011;28839;52.404;9.808;2022-11-22T15:03:56;21.10;;;10.90;;
43226;SDS011;28839;52.404;9.808;2022-11-22T15:11:12;18.95;;;11.75;;
43226;SDS011;28839;52.404;9.808;2022-11-22T15:18:17;17.65;;;11.15;;
43226;SDS011;28839;52.404;9.808;2022-11-22T15:25:17;18.87;;;10.50;;
43226;SDS011;28839;52.404;9.808;2022-11-22T15:32:12;17.27;;;10.10;;
43226;SDS011;28839;52.404;9.808;2022-11-22T15:39:09;16.17;;;9.57;;
43226;SDS011;28839;52.404;9.808;2022-11-22T15:46:06;41.40;;;23.05;;
43226;SDS011;28839;52.404;9.808;2022-11-22T15:53:17;25.50;;;14.10;;
43226;SDS011;28839;52.404;9.808;2022-11-22T16:00:23;21.35;;;12.95;;
43226;SDS011;28839;52.404;9.808;2022-11-22T16:07:23;27.40;;;13.62;;
43226;SDS011;28839;52.404;9.808;2022-11-22T16:21:53;26.27;;;13.93;;
43226;SDS011;28839;52.404;9.808;2022-11-22T16:28:50;28.85;;;14.38;;
43226;SDS011;28839;52.404;9.808;2022-11-22T16:35:45;23.35;;;13.15;;
43226;SDS011;28839;52.404;9.808;2022-11-22T16:42:39;28.50;;;13.43;;
43226;SDS011;28839;52.404;9.808;2022-11-22T16:49:35;24.27;;;14.35;;
43226;SDS011;28839;52.404;9.808;2022-11-22T16:56:29;31.37;;;16.15;;
43226;SDS011;28839;52.404;9.808;2022-11-22T17:03:25;27.70;;;14.27;;
43226;SDS011;28839;52.404;9.808;2022-11-22T17:10:23;28.20;;;14.43;;
43226;SDS011;28839;52.404;9.808;2022-11-22T17:17:19;31.10;;;16.45;;
43226;SDS011;28839;52.404;9.808;2022-11-22T17:24:14;23.07;;;14.50;;
43226;SDS011;28839;52.404;9.808;2022-11-22T17:31:13;25.65;;;13.73;;
43226;SDS011;28839;52.404;9.808;2022-11-22T17:38:09;30.52;;;15.40;;
43226;SDS011;28839;52.404;9.808;2022-11-22T17:45:04;27.58;;;14.90;;
43226;SDS011;28839;52.404;9.808;2022-11-22T17:58:53;27.40;;;14.63;;
43226;SDS011;28839;52.404;9.808;2022-11-22T18:05:47;28.38;;;15.93;;
43226;SDS011;28839;52.404;9.808;2022-11-22T18:12:43;29.50;;;16.47;;
43226;SDS011;28839;52.404;9.808;2022-11-22T18:19:37;30.58;;;17.75;;
43226;SDS011;28839;52.404;9.808;2022-11-22T18:26:30;32.90;;;18.25;;
43226;SDS011;28839;52.404;9.808;2022-11-22T18:33:27;30.98;;;17.90;;
43226;SDS011;28839;52.404;9.808;2022-11-22T18:40:21;27.10;;;16.45;;
43226;SDS011;28839;52.404;9.808;2022-11-22T18:47:15;26.03;;;16.00;;
43226;SDS011;28839;52.404;9.808;2022-11-22T18:54:10;22.52;;;13.95;;
43226;SDS011;28839;52.404;9.808;2022-11-22T19:01:08;30.08;;;17.48;;
43226;SDS011;28839;52.404;9.808;2022-11-22T19:08:02;28.05;;;15.27;;
43226;SDS011;28839;52.404;9.808;2022-11-22T19:14:59;30.52;;;15.68;;
43226;SDS011;28839;52.404;9.808;2022-11-22T19:21:53;28.62;;;14.65;;
43226;SDS011;28839;52.404;9.808;2022-11-22T19:28:47;23.83;;;15.90;;
43226;SDS011;28839;52.404;9.808;2022-11-22T19:35:43;22.67;;;15.02;;
43226;SDS011;28839;52.404;9.808;2022-11-22T19:42:47;25.70;;;15.27;;
43226;SDS011;28839;52.404;9.808;2022-11-22T19:49:41;24.95;;;14.35;;
43226;SDS011;28839;52.404;9.808;2022-11-22T19:56:37;29.27;;;16.20;;
43226;SDS011;28839;52.404;9.808;2022-11-22T20:03:31;27.52;;;14.20;;
43226;SDS011;28839;52.404;9.808;2022-11-22T20:10:25;28.90;;;14.90;;
43226;SDS011;28839;52.404;9.808;2022-11-22T20:17:20;32.92;;;14.05;;
43226;SDS011;28839;52.404;9.808;2022-11-22T20:24:14;20.42;;;11.50;;
43226;SDS011;28839;52.404;9.808;2022-11-22T20:31:09;21.40;;;11.57;;
43226;SDS011;28839;52.404;9.808;2022-11-22T20:38:06;26.58;;;13.20;;
43226;SDS011;28839;52.404;9.808;2022-11-22T20:44:59;20.75;;;10.63;;
43226;SDS011;28839;52.404;9.808;2022-11-22T20:51:56;18.90;;;10.63;;
43226;SDS011;28839;52.404;9.808;2022-11-22T20:58:51;20.50;;;10.50;;
43226;SDS011;28839;52.404;9.808;2022-11-22T21:05:48;17.70;;;10.27;;
43226;SDS011;28839;52.404;9.808;2022-11-22T21:12:43;14.98;;;8.63;;
43226;SDS011;28839;52.404;9.808;2022-11-22T21:19:38;15.45;;;8.10;;
43226;SDS011;28839;52.404;9.808;2022-11-22T21:26:32;18.60;;;9.88;;
43226;SDS011;28839;52.404;9.808;2022-11-22T21:33:27;15.00;;;7.85;;
43226;SDS011;28839;52.404;9.808;2022-11-22T21:40:25;12.40;;;6.10;;
43226;SDS011;28839;52.404;9.808;2022-11-22T21:47:19;9.43;;;6.22;;
43226;SDS011;28839;52.404;9.808;2022-11-22T21:54:14;11.50;;;4.43;;
43226;SDS011;28839;52.404;9.808;2022-11-22T22:01:09;7.25;;;3.75;;
43226;SDS011;28839;52.404;9.808;2022-11-22T22:08:03;6.75;;;3.70;;
43226;SDS011;28839;52.404;9.808;2022-11-22T22:14:57;7.97;;;4.13;;
43226;SDS011;28839;52.404;9.808;2022-11-22T22:21:52;21.73;;;5.93;;
43226;SDS011;28839;52.404;9.808;2022-11-22T22:28:46;10.13;;;4.45;;
43226;SDS011;28839;52.404;9.808;2022-11-22T22:35:40;7.80;;;3.85;;
43226;SDS011;28839;52.404;9.808;2022-11-22T22:42:35;8.48;;;3.90;;
43226;SDS011;28839;52.404;9.808;2022-11-22T22:49:29;12.30;;;3.67;;
43226;SDS011;28839;52.404;9.808;2022-11-22T22:56:23;12.10;;;4.68;;
43226;SDS011;28839;52.404;9.808;2022-11-22T23:03:18;8.53;;;4.33;;
43226;SDS011;28839;52.404;9.808;2022-11-22T23:10:12;10.63;;;3.28;;
43226;SDS011;28839;52.404;9.808;2022-11-22T23:17:07;7.57;;;2.73;;
43226;SDS011;28839;52.404;9.808;2022-11-22T23:24:03;8.68;;;3.58;;
43226;SDS011;28839;52.404;9.808;2022-11-22T23:31:02;8.93;;;3.55;;
43226;SDS011;28839;52.404;9.808;2022-11-22T23:37:57;8.43;;;2.78;;
43226;SDS011;28839;52.404;9.808;2022-11-22T23:44:52;8.05;;;3.50;;
43226;SDS011;28839;52.404;9.808;2022-11-22T23:51:46;7.55;;;3.10;;
43226;SDS011;28839;52.404;9.808;2022-11-22T23:58:41;9.30;;;3.15;;
